METAR Data
IDs: Format: Raw Decoded Include TAF

Data at: 2107 UTC 24 Mar 2019

KASL 242055Z AUTO 20007KT 10SM BKN029 BKN033 OVC048 21/17 A3007 RMK AO1 T02110165
KASL 242035Z AUTO 19006KT 10SM SCT027 OVC035 21/17 A3008 RMK AO1 T02110166
KASL 242015Z AUTO 18007KT 10SM SCT028 OVC036 21/17 A3008 RMK AO1 T02110165
KASL 241955Z AUTO 18007KT 10SM SCT020 BKN026 OVC034 21/17 A3008 RMK AO1 T02110167
KASL 241935Z AUTO 17005KT 10SM BKN019 BKN025 OVC033 21/17 A3009 RMK AO1 T02110173
KASL 241915Z AUTO 17005KT 10SM BKN019 OVC030 20/16 A3009 RMK AO1 T01970160
KASL 241855Z AUTO 17006KT 10SM BKN015 BKN023 OVC030 21/17 A3010 RMK AO1 T02100172
KASL 241835Z AUTO 21005KT 10SM OVC015 19/16 A3011 RMK AO1 T01900158
KASL 241815Z AUTO 18005KT 10SM OVC015 19/16 A3011 RMK AO1 T01900158
KASL 241755Z AUTO 18007KT 10SM OVC013 18/15 A3012 RMK AO1 T01830152 10183 20141
KASL 241735Z AUTO 19006KT 10SM OVC013 18/15 A3012 RMK AO1 T01830154
KASL 241715Z AUTO 17004KT 10SM OVC011 18/16 A3013 RMK AO1 T01830155
KASL 241655Z AUTO 17004KT 10SM OVC011 18/16 A3014 RMK AO1 T01830155
KASL 241635Z AUTO 18005KT 10SM OVC011 18/16 A3014 RMK AO1 T01830155
KASL 241615Z AUTO 18007KT 10SM OVC009 18/16 A3015 RMK AO1 T01820158
KASL 241555Z AUTO 16006KT 10SM OVC009 17/15 A3015 RMK AO1 T01700147
KASL 241535Z AUTO 17005KT 10SM OVC009 16/14 A3015 RMK AO1 T01550136
KASL 241515Z AUTO 18004KT 7SM OVC009 16/14 A3015 RMK AO1 T01550137
KASL 241455Z AUTO 17006KT 10SM OVC009 16/14 A3015 RMK AO1 T01550135
KASL 241435Z AUTO 18005KT 7SM OVC009 15/14 A3015 RMK AO1 T01540136
KASL 241415Z AUTO 00000KT 10SM OVC011 16/14 A3014 RMK AO1 T01550135
KASL 241355Z AUTO 15003KT 10SM SCT011 OVC031 15/13 A3014 RMK AO1 T01480128
KASL 241335Z AUTO 16003KT 10SM SCT012 OVC031 15/13 A3013 RMK AO1 T01450125
KASL 241315Z AUTO 00000KT 10SM SCT014 SCT022 OVC029 14/12 A3013 RMK AO1 T01410121
KASL 241255Z AUTO 00000KT 10SM SCT014 BKN024 OVC029 14/12 A3012 RMK AO1 T01410120
KASL 241235Z AUTO 00000KT 10SM OVC027 14/12 A3012 RMK AO1 T01410120
KASL 241215Z AUTO 00000KT 10SM OVC025 14/12 A3011 RMK AO1 T01410120
KASL 241155Z AUTO 00000KT 10SM OVC025 14/12 A3011 RMK AO1 T01410118 10183 20135
KASL 241135Z AUTO 00000KT 10SM OVC027 14/12 A3011 RMK AO1 T01410118
KASL 241115Z AUTO 00000KT 10SM OVC027 14/12 A3010 RMK AO1 T01410117
KASL 241055Z AUTO 00000KT 10SM OVC025 14/11 A3010 RMK AO1 T01350111
KASL 241035Z AUTO 00000KT 10SM SCT025 14/11 A3010 RMK AO1 T01350111
KASL 241015Z AUTO 19003KT 10SM SCT055 14/11 A3010 RMK AO1 T01350107
KASL 240955Z AUTO 20003KT 10SM BKN055 15/11 A3010 RMK AO1 T01450111
KASL 240935Z AUTO 20004KT 10SM BKN055 15/11 A3010 RMK AO1 T01480111
KASL 240915Z AUTO 21004KT 10SM SCT055 SCT085 15/11 A3010 RMK AO1 T01480108
KASL 240855Z AUTO 21004KT 10SM CLR 16/11 A3010 RMK AO1 T01550111
KASL 240835Z AUTO 17007KT 10SM SCT100 16/11 A3009 RMK AO1 T01550106
KASL 240815Z AUTO 18007KT 10SM BKN100 16/11 A3010 RMK AO1 T01600109
KASL 240755Z AUTO 20008KT 10SM BKN100 17/11 A3011 RMK AO1 T01700111
KASL 240735Z AUTO 18006KT 10SM SCT090 OVC110 17/11 A3011 RMK AO1 T01700110
KASL 240715Z AUTO 20007KT 10SM OVC110 17/11 A3011 RMK AO1 T01700107
KASL 240655Z AUTO 19005KT 10SM BKN100 17/11 A3011 RMK AO1 T01700107
KASL 240635Z AUTO 18007KT 10SM SCT100 17/11 A3011 RMK AO1 T01700105
KASL 240615Z AUTO 18006KT 10SM SCT100 18/11 A3011 RMK AO1 T01830112
KASL 240555Z AUTO 18011G14KT 10SM SCT065 OVC090 18/11 A3010 RMK AO1 T01830105 10215 20183 402400072
KASL 240535Z AUTO 17009KT 10SM BKN065 OVC090 18/10 A3011 RMK AO1 T01830099
KASL 240515Z AUTO 19009G14KT 10SM OVC065 18/09 A3011 RMK AO1 T01830094
KASL 240455Z AUTO 19008KT 10SM BKN065 BKN080 OVC110 18/09 A3011 RMK AO1 T01830088
KASL 240435Z AUTO 18011G18KT 10SM SCT065 BKN100 18/09 A3010 RMK AO1 T01830085
KASL 240415Z AUTO 18010G18KT 10SM SCT065 OVC100 18/08 A3010 RMK AO1 T01830081
KASL 240355Z AUTO 18011G18KT 10SM SCT080 OVC100 19/08 A3011 RMK AO1 T01900082
KASL 240335Z AUTO 18010KT 10SM BKN080 OVC100 20/09 A3011 RMK AO1 T01970085
KASL 240315Z AUTO 19008KT 10SM OVC080 20/09 A3012 RMK AO1 T01970085
KASL 240255Z AUTO 18007KT 10SM BKN080 OVC110 20/09 A3011 RMK AO1 T01970086
KASL 240235Z AUTO 19007KT 10SM OVC080 21/10 A3011 RMK AO1 T02110095
KASL 240215Z AUTO 19009KT 10SM BKN080 OVC090 21/09 A3010 RMK AO1 T02110094
KASL 240155Z AUTO 18006KT 10SM OVC070 21/10 A3009 RMK AO1 T02110096
KASL 240135Z AUTO 18005KT 10SM OVC070 21/10 A3009 RMK AO1 T02110101
KASL 240115Z AUTO 17004KT 10SM OVC070 21/10 A3008 RMK AO1 T02110100
KASL 240055Z AUTO 17005KT 10SM OVC070 21/09 A3008 RMK AO1 T02110089
KASL 240035Z AUTO 17005KT 10SM OVC070 21/09 A3007 RMK AO1 T02110085
KASL 240015Z AUTO 16006KT 10SM OVC070 21/08 A3007 RMK AO1 T02110078
KASL 232355Z AUTO 16007KT 10SM OVC080 22/08 A3007 RMK AO1 T02180079 10240 20211
KASL 232335Z AUTO 17005KT 10SM BKN080 OVC100 23/08 A3007 RMK AO1 T02250078
KASL 232315Z AUTO 19008KT 10SM OVC090 23/07 A3007 RMK AO1 T02250070
KASL 232255Z AUTO 20009KT 10SM BKN090 OVC110 23/07 A3007 RMK AO1 T02250074
KASL 232235Z AUTO 20011KT 10SM SCT090 BKN110 23/08 A3007 RMK AO1 T02250077
KASL 232215Z AUTO 20011KT 10SM BKN085 BKN110 23/07 A3007 RMK AO1 T02320074
KASL 232155Z AUTO 22011KT 10SM OVC085 24/08 A3007 RMK AO1 T02350079
KASL 232135Z AUTO 17009KT 10SM BKN095 23/08 A3008 RMK AO1 T02340078
KASL 232115Z AUTO 17012G17KT 10SM SCT095 24/08 A3008 RMK AO1 T02400078
KASL 232055Z AUTO 20010G15KT 10SM SCT095 24/07 A3009 RMK AO1 T02400073
KASL 232035Z AUTO 17007G15KT 10SM SCT095 24/08 A3009 RMK AO1 T02400081
KASL 232015Z AUTO 16010G18KT 10SM SCT095 24/08 A3010 RMK AO1 T02400080
KASL 231955Z AUTO 17010G17KT 10SM CLR 24/08 A3011 RMK AO1 T02370077
KASL 231935Z AUTO 19008KT 10SM CLR 23/07 A3012 RMK AO1 T02280070
KASL 231915Z AUTO 20012G18KT 10SM CLR 23/07 A3012 RMK AO1 T02250070
KASL 231855Z AUTO 17014G18KT 10SM CLR 23/07 A3014 RMK AO1 T02250068
KASL 231835Z AUTO 17005KT 10SM CLR 22/10 A3014 RMK AO1 T02200100
KASL 231815Z AUTO 20011G19KT 10SM CLR 21/10 A3015 RMK AO1 T02110100
KASL 231755Z AUTO 18012KT 10SM CLR 21/10 A3015 RMK AO1 T02110095 10211 20072
KASL 231735Z AUTO 18009G14KT 10SM CLR 20/10 A3015 RMK AO1 T01970098
KASL 231715Z AUTO 19008KT 10SM CLR 19/10 A3016 RMK AO1 T01910102
KASL 231655Z AUTO 15005KT 10SM CLR 18/11 A3016 RMK AO1 T01830109
KASL 231635Z AUTO 16005KT 10SM CLR 18/11 A3019 RMK AO1 T01830112
KASL 231615Z AUTO 19008KT 10SM CLR 18/12 A3020 RMK AO1 T01830116
KASL 231555Z AUTO 20011KT 10SM CLR 18/12 A3021 RMK AO1 T01830118
KASL 231535Z AUTO 19006KT 10SM CLR 17/11 A3021 RMK AO1 T01700107
KASL 231515Z AUTO 17005KT 10SM CLR 15/09 A3020 RMK AO1 T01530094
KASL 231455Z AUTO 17003KT 10SM SCT070 14/09 A3020 RMK AO1 T01350085
KASL 231435Z AUTO 00000KT 10SM CLR 13/08 A3020 RMK AO1 T01270083
KASL 231415Z AUTO 00000KT 10SM CLR 13/09 A3019 RMK AO1 T01250087
KASL 231355Z AUTO 00000KT 10SM CLR 12/08 A3018 RMK AO1 T01150081
KASL 231335Z AUTO 00000KT 10SM CLR 11/08 A3017 RMK AO1 T01100081
KASL 231315Z AUTO 00000KT 10SM CLR 10/08 A3017 RMK AO1 T01010077
KASL 231255Z AUTO 00000KT 10SM CLR 10/07 A3016 RMK AO1 T01000068
KASL 231235Z AUTO 00000KT 10SM CLR 09/07 A3014 RMK AO1 T00860069
KASL 231215Z AUTO 00000KT 10SM CLR 07/05 A3014 RMK AO1 T00720053
KASL 231155Z AUTO 00000KT 10SM CLR 07/06 A3014 RMK AO1 T00720055 10101 20072
KASL 231135Z AUTO 00000KT 10SM CLR 07/06 A3014 RMK AO1 T00720056
KASL 231115Z AUTO 00000KT 10SM CLR 08/06 A3014 RMK AO1 T00800060
KASL 231055Z AUTO 00000KT 10SM CLR 09/06 A3014 RMK AO1 T00860062
KASL 231035Z AUTO 00000KT 10SM CLR 09/06 A3013 RMK AO1 T00860060
KASL 231015Z AUTO 00000KT 10SM CLR 09/06 A3013 RMK AO1 T00860057
KASL 230955Z AUTO 00000KT 10SM CLR 09/05 A3012 RMK AO1 T00860054
KASL 230935Z AUTO 00000KT 10SM CLR 09/06 A3012 RMK AO1 T00900061
KASL 230915Z AUTO 00000KT 10SM CLR 10/06 A3011 RMK AO1 T01000057